world map with SRE marked

SRE - Airport

This information may not be accurate or current and is not valid for navigation or flight planning. No warranty of fitness for any purpose is made or implied.

flag of Chuquisacaflag of Bolivia

Donate via PayPal

Additional information is available on the NEW Great Circle Mapper

Location
City:  Sucre, Chuquisaca, Bolivia
Name:Alcantarí International Airport
ICAO / IATA:SLAL / SRE

Details
Type:Airport (Aerodrome, Airfield)
Use:Public/Civil
Latitude:19°14'19"S (-19.238610)
Longitude:65°08'56"W (-65.148888)
Elevation:10184 ft (3104 m)
Runways:1
Longest:11811 × 148 ft (3600 × 45 m)

Time
Timezone:UTC+30:08 (DST+32:08)
Local Time:

Weather
METAR:SLAL  041400Z 07008KT 9999 FEW005 SCT013 BKN070 12/09 Q1034
TAF:SLAL  (expired)

Related Locations
Nearby:
Farthest:ZUH: 12220 mi / 19666 km
Zhuhai (Sanzao, Shanzhou) [Intl], 44, CN

Find:

   beyond  
but within

Other Information
Maps:
Links:
Sources:

  


 


Great Circle Mapper   Great Circle Mapper
Great Circle Mapper FAQ   Great Circle Mapper FAQ
  Karl's Home Page
KLS˛   KLS˛ Home
   GC on Facebook
Airlines of the World   Airlines of the World
Donate via PayPal


Copyright © 2004-2020, Karl L. Swartz. All rights reserved.
All trademarks mentioned herein belong to their respective owners.

Please see credits for attribution and copyright information.

Karl Swartz <karl@kls2.com>
  Powered by FreeBSD
Valid HTML 4.01!
Labeled with ICRA
hCard Microformat
Geo Microformat